Time;durP1;ratioP1;P1;durP2;ratioP2;P2;SDS_P1;SDS_P2;PMS_P1;PMS_P2;Temp;Humidity;BMP_temperature;BMP_pressure;BME280_temperature;BME280_humidity;BME280_pressure;Samples;Min_cycle;Max_cycle;Signal;HPM_P1;HPM_P2
2022/04/04 00:00:46;;;;;;;8.90;3.58;;;4.60;99.90;;;;;;5119491;27;20062;-73
2022/04/04 00:03:12;;;;;;;5.65;3.20;;;4.60;99.90;;;;;;5137511;27;20051;-73
2022/04/04 00:05:39;;;;;;;9.75;3.20;;;4.50;99.90;;;;;;5137563;27;20060;-73
2022/04/04 00:08:08;;;;;;;8.27;3.20;;;4.60;99.90;;;;;;5119223;27;20096;-73
2022/04/04 00:10:34;;;;;;;8.45;3.45;;;4.60;99.90;;;;;;5137358;27;20079;-73
2022/04/04 00:13:00;;;;;;;12.30;4.03;;;4.60;99.90;;;;;;5137242;27;20382;-74
2022/04/04 00:15:27;;;;;;;8.82;3.25;;;4.70;99.90;;;;;;5119140;27;20044;-73
2022/04/04 00:17:55;;;;;;;6.05;3.10;;;4.80;99.90;;;;;;5119389;27;20051;-73
2022/04/04 00:20:21;;;;;;;7.88;3.15;;;4.70;99.90;;;;;;5118031;27;20051;-73
2022/04/04 00:22:46;;;;;;;8.98;3.47;;;4.80;99.90;;;;;;5137101;27;20035;-73
2022/04/04 00:25:12;;;;;;;6.75;2.97;;;4.80;99.90;;;;;;5115403;28;20100;-73
2022/04/04 00:27:38;;;;;;;7.00;3.47;;;4.80;99.90;;;;;;5116573;28;20092;-73
2022/04/04 00:30:04;;;;;;;7.05;2.72;;;4.90;99.90;;;;;;5116630;28;20470;-73
2022/04/04 00:32:30;;;;;;;9.90;3.40;;;4.90;99.90;;;;;;5115202;28;20044;-73
2022/04/04 00:34:56;;;;;;;6.18;2.85;;;4.90;99.90;;;;;;5116394;28;20421;-74
2022/04/04 00:37:22;;;;;;;11.38;3.53;;;4.90;99.90;;;;;;5116406;28;20048;-73
2022/04/04 00:39:47;;;;;;;9.27;3.90;;;4.90;99.90;;;;;;5116313;28;20505;-73
2022/04/04 00:42:17;;;;;;;10.52;3.83;;;4.90;99.90;;;;;;5116233;28;20043;-73
2022/04/04 00:44:45;;;;;;;6.93;3.38;;;4.90;99.90;;;;;;5116193;28;20047;-73
2022/04/04 00:47:11;;;;;;;12.18;3.28;;;4.80;99.90;;;;;;5115166;28;20051;-73
2022/04/04 00:49:37;;;;;;;10.50;3.70;;;4.80;99.90;;;;;;5115341;28;20062;-73
2022/04/04 00:52:03;;;;;;;7.43;3.75;;;4.90;99.90;;;;;;5115090;28;20040;-73
2022/04/04 00:54:28;;;;;;;10.45;4.07;;;4.90;99.90;;;;;;5115976;28;20097;-73
2022/04/04 00:56:55;;;;;;;9.77;4.55;;;4.90;99.90;;;;;;5115957;27;20051;-73
2022/04/04 00:59:23;;;;;;;10.00;4.50;;;4.90;99.90;;;;;;5115930;28;20434;-73
2022/04/04 01:01:49;;;;;;;10.70;4.20;;;4.90;99.90;;;;;;5115855;28;20153;-73
2022/04/04 01:04:16;;;;;;;6.50;3.83;;;4.90;99.90;;;;;;5114821;28;20451;-73
2022/04/04 01:06:43;;;;;;;6.10;3.83;;;5.00;99.90;;;;;;5114564;28;20092;-73
2022/04/04 01:09:14;;;;;;;8.63;4.43;;;5.00;99.90;;;;;;5115779;28;20066;-73
2022/04/04 01:12:02;;;;;;;10.90;4.18;;;4.90;99.90;;;;;;5115423;28;20055;-73
2022/04/04 01:14:28;;;;;;;9.38;4.22;;;4.90;99.90;;;;;;5114515;28;20047;-73
2022/04/04 01:16:54;;;;;;;9.73;4.88;;;5.00;99.90;;;;;;5114604;28;20500;-73
2022/04/04 01:19:20;;;;;;;11.32;5.55;;;5.10;99.90;;;;;;5114349;28;20079;-74
2022/04/04 01:21:46;;;;;;;13.93;6.10;;;5.10;99.90;;;;;;5115548;28;20051;-73
2022/04/04 01:24:18;;;;;;;10.27;5.70;;;5.10;99.90;;;;;;5119781;27;20066;-73
2022/04/04 01:26:52;;;;;;;13.50;7.03;;;5.10;99.90;;;;;;5135937;27;20047;-73
2022/04/04 01:29:23;;;;;;;10.52;6.03;;;5.20;99.90;;;;;;5117964;27;20474;-73
2022/04/04 01:31:49;;;;;;;12.02;6.22;;;5.10;99.90;;;;;;5134921;27;20035;-74
2022/04/04 01:34:17;;;;;;;12.95;6.75;;;5.20;99.90;;;;;;5135794;27;20073;-73
2022/04/04 01:36:43;;;;;;;11.25;6.97;;;5.10;99.90;;;;;;5117648;27;20133;-73
2022/04/04 01:39:09;;;;;;;13.18;7.10;;;5.20;99.90;;;;;;5117303;27;20133;-74
2022/04/04 01:41:34;;;;;;;15.50;7.32;;;5.20;99.90;;;;;;5135615;27;20035;-73
2022/04/04 01:44:01;;;;;;;14.90;7.38;;;5.20;99.90;;;;;;5135527;27;20043;-74
2022/04/04 01:46:27;;;;;;;15.02;7.88;;;5.20;99.90;;;;;;5135376;27;20051;-74
2022/04/04 01:49:01;;;;;;;16.52;8.13;;;5.20;99.90;;;;;;5135447;27;20055;-74
2022/04/04 01:51:28;;;;;;;16.98;8.60;;;5.10;99.90;;;;;;5116652;27;20088;-73
2022/04/04 01:53:55;;;;;;;15.57;8.80;;;5.20;99.90;;;;;;5135393;27;20055;-73
2022/04/04 01:56:21;;;;;;;16.40;9.52;;;5.00;99.90;;;;;;5100041;27;20058;-73
2022/04/04 01:58:47;;;;;;;17.13;8.73;;;5.10;99.90;;;;;;5117187;27;20118;-73
2022/04/04 02:01:19;;;;;;;18.83;9.25;;;5.00;99.90;;;;;;5116849;27;20055;-73
2022/04/04 02:03:51;;;;;;;17.92;8.15;;;5.10;99.90;;;;;;5135219;27;20534;-73
2022/04/04 02:06:18;;;;;;;20.00;9.70;;;5.00;99.90;;;;;;5116868;27;20051;-73
2022/04/04 02:08:44;;;;;;;20.15;11.40;;;5.10;99.90;;;;;;5135298;27;20043;-73
2022/04/04 02:11:11;;;;;;;21.23;10.20;;;5.10;99.90;;;;;;5100018;27;20386;-73
2022/04/04 02:13:37;;;;;;;20.85;10.52;;;5.20;99.90;;;;;;5116930;27;20039;-73
2022/04/04 02:16:04;;;;;;;23.75;11.75;;;5.20;99.90;;;;;;5135033;27;20039;-74
2022/04/04 02:18:31;;;;;;;20.42;10.90;;;5.30;99.90;;;;;;5135041;27;20495;-73
2022/04/04 02:20:57;;;;;;;22.30;11.77;;;5.30;99.90;;;;;;5116417;27;20039;-73
2022/04/04 02:23:24;;;;;;;27.63;12.02;;;5.30;99.90;;;;;;5116837;27;20047;-73
2022/04/04 02:25:51;;;;;;;22.88;12.02;;;5.30;99.90;;;;;;5116461;27;20447;-74
2022/04/04 02:28:17;;;;;;;20.65;11.10;;;5.30;99.90;;;;;;5116469;27;20058;-73
2022/04/04 02:30:44;;;;;;;22.30;12.23;;;5.20;99.90;;;;;;5134926;27;20047;-73
2022/04/04 02:33:12;;;;;;;22.52;13.00;;;5.30;99.90;;;;;;5134729;27;20356;-74
2022/04/04 02:35:38;;;;;;;23.85;11.95;;;5.40;99.90;;;;;;5116660;27;20044;-73
2022/04/04 02:38:05;;;;;;;22.08;12.43;;;5.20;99.90;;;;;;5116712;28;20062;-73
2022/04/04 02:40:31;;;;;;;21.58;12.75;;;5.30;99.90;;;;;;5134385;28;20043;-74
2022/04/04 02:42:57;;;;;;;23.33;11.82;;;5.40;99.90;;;;;;5115883;28;20055;-74
2022/04/04 02:45:23;;;;;;;26.13;13.40;;;5.30;99.90;;;;;;5116518;28;20047;-74
2022/04/04 02:47:49;;;;;;;25.52;13.85;;;5.40;99.90;;;;;;5134353;28;20039;-74
2022/04/04 02:50:17;;;;;;;25.38;14.23;;;5.50;99.90;;;;;;5116007;28;20047;-73
2022/04/04 02:52:43;;;;;;;22.98;13.02;;;5.40;99.90;;;;;;5133287;27;20035;-74
2022/04/04 02:57:55;;;;;;;19.58;10.43;;;5.40;99.90;;;;;;5135403;28;20066;-74
2022/04/04 03:00:23;;;;;;;22.95;13.10;;;5.40;99.90;;;;;;5134187;28;20517;-74
2022/04/04 03:02:49;;;;;;;23.30;12.85;;;5.40;99.90;;;;;;5116394;28;20064;-73
2022/04/04 03:05:15;;;;;;;27.20;13.23;;;5.50;99.90;;;;;;5134494;28;20122;-73
2022/04/04 03:07:41;;;;;;;25.25;13.50;;;5.50;99.90;;;;;;5134603;28;20047;-73
2022/04/04 03:10:07;;;;;;;27.55;13.40;;;5.60;99.90;;;;;;5134997;28;20078;-73
2022/04/04 03:12:38;;;;;;;27.08;13.05;;;5.50;99.90;;;;;;5134349;28;20382;-73
2022/04/04 03:15:04;;;;;;;18.92;11.70;;;5.50;99.90;;;;;;5134497;28;20128;-73
2022/04/04 03:17:30;;;;;;;26.85;13.65;;;5.60;99.90;;;;;;5116226;28;20117;-74
2022/04/04 03:19:56;;;;;;;28.45;13.00;;;5.60;99.90;;;;;;5134160;28;20087;-73
2022/04/04 03:22:21;;;;;;;22.67;13.38;;;5.60;99.90;;;;;;5134328;28;20099;-73
2022/04/04 03:24:47;;;;;;;26.08;13.88;;;5.60;99.90;;;;;;5116029;28;20512;-73
2022/04/04 03:27:14;;;;;;;30.23;13.88;;;5.60;99.90;;;;;;5134276;28;20079;-73
2022/04/04 03:29:40;;;;;;;22.75;12.02;;;5.60;99.90;;;;;;5116184;28;20482;-73
2022/04/04 03:32:07;;;;;;;24.92;12.70;;;5.60;99.90;;;;;;5115979;28;20581;-73
2022/04/04 03:34:33;;;;;;;24.88;13.45;;;5.70;99.90;;;;;;5134163;28;20482;-73
2022/04/04 03:36:59;;;;;;;24.98;14.38;;;5.70;99.90;;;;;;5133872;28;20508;-73
2022/04/04 03:39:25;;;;;;;24.70;12.02;;;5.80;99.90;;;;;;5134175;28;20047;-73
2022/04/04 03:41:53;;;;;;;25.00;13.57;;;5.80;99.90;;;;;;5134097;28;20092;-73
2022/04/04 03:44:18;;;;;;;25.88;14.43;;;5.80;99.90;;;;;;5134085;28;20051;-73
2022/04/04 03:46:44;;;;;;;24.33;12.77;;;5.80;99.90;;;;;;5134080;28;20050;-73
2022/04/04 03:49:10;;;;;;;30.08;13.20;;;5.80;99.90;;;;;;5116032;28;20529;-73
2022/04/04 03:51:35;;;;;;;30.20;12.85;;;5.90;99.90;;;;;;5133474;28;20390;-73
2022/04/04 03:54:01;;;;;;;30.73;14.52;;;5.90;99.90;;;;;;5116214;27;20047;-74
2022/04/04 03:56:27;;;;;;;31.63;14.15;;;5.90;99.90;;;;;;5119650;27;20168;-74
2022/04/04 03:58:54;;;;;;;30.98;15.40;;;5.90;99.90;;;;;;5119544;27;20078;-73
2022/04/04 04:01:20;;;;;;;29.52;15.90;;;5.90;99.90;;;;;;5119466;27;20055;-73
2022/04/04 04:03:46;;;;;;;33.58;15.95;;;5.90;99.90;;;;;;5119185;27;20051;-73
2022/04/04 04:06:11;;;;;;;30.98;16.95;;;5.90;99.90;;;;;;5137833;27;20078;-73
2022/04/04 04:08:46;;;;;;;37.47;17.00;;;5.90;99.90;;;;;;5119139;27;20521;-73
2022/04/04 04:11:16;;;;;;;32.58;16.02;;;5.80;99.90;;;;;;5137671;27;20107;-73
2022/04/04 04:13:44;;;;;;;37.40;18.77;;;5.80;99.90;;;;;;5137651;27;20043;-73
2022/04/04 04:16:12;;;;;;;34.72;18.33;;;5.90;99.90;;;;;;5137405;27;20039;-73
2022/04/04 04:18:38;;;;;;;33.05;17.10;;;5.80;99.90;;;;;;5137244;27;20054;-73
2022/04/04 04:21:05;;;;;;;37.33;18.77;;;5.80;99.90;;;;;;5136821;27;20043;-74
2022/04/04 04:23:30;;;;;;;38.08;19.85;;;5.80;99.90;;;;;;5102237;27;20054;-74
2022/04/04 04:25:56;;;;;;;38.38;21.02;;;5.80;99.90;;;;;;5137373;27;20051;-74
2022/04/04 04:28:22;;;;;;;43.50;19.35;;;5.80;99.90;;;;;;5137156;27;20081;-73
2022/04/04 04:30:48;;;;;;;39.15;18.77;;;5.80;99.90;;;;;;5137031;27;20512;-73
2022/04/04 04:33:14;;;;;;;41.25;19.58;;;5.70;99.90;;;;;;5136853;27;20046;-73
2022/04/04 04:35:40;;;;;;;35.50;20.75;;;5.80;99.90;;;;;;5136863;27;20047;-74
2022/04/04 04:38:07;;;;;;;41.65;21.65;;;5.70;99.90;;;;;;5118949;27;20055;-73
2022/04/04 04:40:34;;;;;;;39.70;19.98;;;5.70;99.90;;;;;;5119269;27;20047;-74
2022/04/04 04:43:00;;;;;;;41.63;20.25;;;5.70;99.90;;;;;;5119238;27;20055;-74
2022/04/04 04:45:26;;;;;;;39.22;20.27;;;5.70;99.90;;;;;;5136394;27;20059;-74
2022/04/04 04:47:52;;;;;;;41.00;20.70;;;5.60;99.90;;;;;;5118391;27;20121;-73
2022/04/04 04:50:20;;;;;;;49.38;21.65;;;5.60;99.90;;;;;;5136289;27;20042;-73
2022/04/04 04:52:46;;;;;;;43.38;21.88;;;5.60;99.90;;;;;;5136805;27;20104;-73
2022/04/04 04:55:13;;;;;;;43.63;20.02;;;5.60;99.90;;;;;;5136569;27;20144;-73
2022/04/04 04:57:40;;;;;;;41.30;20.92;;;5.60;99.90;;;;;;5118578;27;20050;-73
2022/04/04 05:00:09;;;;;;;42.63;21.05;;;5.60;99.90;;;;;;5136809;27;20061;-73
2022/04/04 05:02:34;;;;;;;37.10;18.73;;;5.60;99.90;;;;;;5136542;27;20045;-74
2022/04/04 05:05:01;;;;;;;43.22;20.35;;;5.60;99.90;;;;;;5136220;27;20039;-73
2022/04/04 05:07:27;;;;;;;47.08;21.60;;;5.60;99.90;;;;;;5135226;27;20050;-73
2022/04/04 05:09:52;;;;;;;45.60;23.05;;;5.70;99.90;;;;;;5136307;27;20099;-73
2022/04/04 05:12:18;;;;;;;48.38;22.60;;;5.60;99.90;;;;;;5136200;27;20042;-74
2022/04/04 05:14:44;;;;;;;53.15;24.58;;;5.60;99.90;;;;;;5136424;27;20043;-74
2022/04/04 05:17:09;;;;;;;47.22;23.75;;;5.60;99.90;;;;;;5118061;27;20054;-74
2022/04/04 05:19:36;;;;;;;49.28;23.52;;;5.50;99.90;;;;;;5136043;27;20130;-74
2022/04/04 05:22:02;;;;;;;52.65;25.92;;;5.60;99.90;;;;;;5136084;27;20043;-73
2022/04/04 05:24:27;;;;;;;54.00;25.05;;;5.60;99.90;;;;;;5135869;27;20142;-74
2022/04/04 05:26:55;;;;;;;46.17;23.80;;;5.60;99.90;;;;;;5135976;27;20134;-74
2022/04/04 05:29:20;;;;;;;50.33;25.25;;;5.50;99.90;;;;;;5100981;27;20047;-73
2022/04/04 05:31:46;;;;;;;61.65;27.42;;;5.50;99.90;;;;;;5135674;27;20050;-73
2022/04/04 05:34:12;;;;;;;61.25;27.25;;;5.50;99.90;;;;;;5136015;27;20047;-73
2022/04/04 05:36:39;;;;;;;54.38;26.70;;;5.60;99.90;;;;;;5135770;27;20533;-74
2022/04/04 05:39:06;;;;;;;58.15;25.75;;;5.60;99.90;;;;;;5136393;27;20047;-73
2022/04/04 05:41:32;;;;;;;50.90;28.50;;;5.50;99.90;;;;;;5100552;27;20040;-73
2022/04/04 05:43:58;;;;;;;65.25;30.85;;;5.50;99.90;;;;;;5135563;27;20126;-73
2022/04/04 05:46:24;;;;;;;63.08;28.45;;;5.50;99.90;;;;;;5118043;27;20061;-73
2022/04/04 05:48:50;;;;;;;56.35;27.45;;;5.60;99.90;;;;;;5135479;27;20039;-73
2022/04/04 05:51:17;;;;;;;60.80;28.48;;;5.60;99.90;;;;;;5135146;27;20055;-73
2022/04/04 05:53:44;;;;;;;55.75;26.38;;;5.60;99.90;;;;;;5135474;27;20108;-73
2022/04/04 05:56:10;;;;;;;58.40;28.27;;;5.70;99.90;;;;;;5135337;27;20057;-73
2022/04/04 05:58:36;;;;;;;45.03;22.50;;;5.70;99.90;;;;;;5135316;27;20575;-73
2022/04/04 06:01:03;;;;;;;45.20;22.20;;;5.70;99.90;;;;;;5117234;27;20047;-73
2022/04/04 06:03:29;;;;;;;38.45;19.88;;;5.60;99.90;;;;;;5117184;27;20130;-73
2022/04/04 06:05:54;;;;;;;36.33;18.63;;;5.60;99.90;;;;;;5135289;27;20094;-73
2022/04/04 06:08:21;;;;;;;38.22;18.30;;;5.60;99.90;;;;;;5135269;27;20078;-73
2022/04/04 06:10:47;;;;;;;26.73;14.95;;;5.60;99.90;;;;;;5100272;27;20103;-73
2022/04/04 06:13:15;;;;;;;27.65;12.40;;;5.50;99.90;;;;;;5116615;27;20051;-73
2022/04/04 06:15:42;;;;;;;26.40;12.25;;;5.40;99.90;;;;;;5135072;27;20035;-74
2022/04/04 06:18:15;;;;;;;18.27;10.43;;;5.40;99.90;;;;;;5134649;27;20436;-74
2022/04/04 06:20:42;;;;;;;16.63;9.20;;;5.30;99.90;;;;;;5135108;27;20183;-74
2022/04/04 06:23:08;;;;;;;22.75;9.93;;;5.30;99.90;;;;;;5134984;27;20375;-74
2022/04/04 06:25:34;;;;;;;22.73;9.57;;;5.30;99.90;;;;;;5134831;27;20058;-74
2022/04/04 06:28:00;;;;;;;14.90;8.75;;;5.30;99.90;;;;;;5134946;27;20039;-74
2022/04/04 06:30:26;;;;;;;21.13;9.90;;;5.30;99.90;;;;;;5134842;27;20467;-74
2022/04/04 06:32:52;;;;;;;19.70;8.43;;;5.30;99.90;;;;;;5134764;27;20049;-74
2022/04/04 06:35:18;;;;;;;22.60;9.38;;;5.30;99.90;;;;;;5116730;27;20043;-74
2022/04/04 06:37:46;;;;;;;14.45;7.80;;;5.20;99.90;;;;;;5099459;27;20444;-74
2022/04/04 06:40:13;;;;;;;13.90;7.03;;;5.20;99.90;;;;;;5099644;28;20458;-75
2022/04/04 06:42:41;;;;;;;14.02;7.72;;;5.20;99.90;;;;;;5134695;28;20038;-75
2022/04/04 06:45:09;;;;;;;17.02;8.80;;;5.20;99.90;;;;;;5117140;28;20371;-74
2022/04/04 06:47:34;;;;;;;14.05;7.57;;;5.20;99.90;;;;;;5116590;28;20437;-74
2022/04/04 06:50:00;;;;;;;12.60;7.70;;;5.20;99.90;;;;;;5134179;28;20130;-74
2022/04/04 06:52:27;;;;;;;16.98;7.50;;;5.30;99.90;;;;;;5134557;28;20091;-74
2022/04/04 06:54:56;;;;;;;17.63;7.95;;;5.30;99.90;;;;;;5134625;28;20453;-74
2022/04/04 06:57:22;;;;;;;14.13;8.45;;;5.20;99.90;;;;;;5134521;28;20047;-74
2022/04/04 06:59:48;;;;;;;17.90;9.38;;;5.20;99.90;;;;;;5134521;28;20126;-75
2022/04/04 07:02:14;;;;;;;17.48;8.85;;;5.20;99.90;;;;;;5134472;28;20085;-74
2022/04/04 07:04:43;;;;;;;19.98;9.15;;;5.30;99.90;;;;;;5134558;28;20047;-74
2022/04/04 07:07:09;;;;;;;15.18;8.25;;;5.30;99.90;;;;;;5149865;27;20050;-74
2022/04/04 07:09:35;;;;;;;17.73;9.95;;;5.40;99.90;;;;;;5154421;27;20042;-74
2022/04/04 07:12:02;;;;;;;16.60;10.52;;;5.40;99.90;;;;;;5136066;27;20047;-74
2022/04/04 07:14:28;;;;;;;20.52;10.55;;;5.40;99.90;;;;;;5155298;27;20054;-74
2022/04/04 07:16:54;;;;;;;26.33;11.20;;;5.40;99.90;;;;;;5136664;27;20175;-74
2022/04/04 07:19:22;;;;;;;21.25;12.13;;;5.40;99.90;;;;;;5155014;27;20129;-74
2022/04/04 07:21:51;;;;;;;19.90;11.27;;;5.40;99.90;;;;;;5136147;27;20054;-73
2022/04/04 07:24:18;;;;;;;23.73;11.35;;;5.40;99.90;;;;;;5119680;27;20482;-74
2022/04/04 07:26:44;;;;;;;24.27;12.90;;;5.40;99.90;;;;;;5136764;27;20058;-73
2022/04/04 07:29:10;;;;;;;28.73;13.57;;;5.50;99.90;;;;;;5137791;27;20047;-72
2022/04/04 07:31:36;;;;;;;23.38;13.48;;;5.50;99.90;;;;;;5159040;27;20061;-74
2022/04/04 07:34:03;;;;;;;29.58;14.48;;;5.50;99.90;;;;;;5123496;27;20053;-73
2022/04/04 07:36:29;;;;;;;22.95;12.75;;;5.50;99.90;;;;;;5140583;27;20103;-74
2022/04/04 07:38:55;;;;;;;28.83;14.77;;;5.60;99.90;;;;;;5140744;27;20049;-74
2022/04/04 07:41:21;;;;;;;27.55;15.10;;;5.60;99.90;;;;;;5140686;27;20126;-74
2022/04/04 07:43:47;;;;;;;30.92;16.77;;;5.70;99.90;;;;;;5123328;27;20057;-74
2022/04/04 07:46:13;;;;;;;32.63;17.13;;;5.70;99.90;;;;;;5142758;27;20042;-73
2022/04/04 07:48:42;;;;;;;31.73;15.23;;;5.60;99.90;;;;;;5146896;27;20062;-73
2022/04/04 07:51:07;;;;;;;34.08;17.92;;;5.70;99.90;;;;;;5139574;27;20107;-71
2022/04/04 07:53:33;;;;;;;33.97;17.80;;;5.70;99.90;;;;;;5140247;27;20423;-72
2022/04/04 07:55:59;;;;;;;31.25;17.65;;;5.70;99.90;;;;;;5140022;27;20095;-72
2022/04/04 07:58:25;;;;;;;29.25;16.35;;;5.70;99.90;;;;;;5140135;27;20125;-71
2022/04/04 08:00:52;;;;;;;31.75;17.65;;;5.70;99.90;;;;;;5158445;27;20053;-72
2022/04/04 08:03:19;;;;;;;32.25;19.13;;;5.70;99.90;;;;;;5140300;27;20488;-72
2022/04/04 08:05:45;;;;;;;30.98;18.02;;;5.80;99.90;;;;;;5139851;27;20129;-71
2022/04/04 08:08:11;;;;;;;27.83;17.52;;;5.80;99.90;;;;;;5140033;27;20454;-71
2022/04/04 08:10:36;;;;;;;29.75;17.52;;;5.80;99.90;;;;;;5122762;27;20054;-72
2022/04/04 08:13:02;;;;;;;30.42;16.85;;;5.80;99.90;;;;;;5140696;27;20085;-72
2022/04/04 08:15:28;;;;;;;30.67;17.63;;;5.70;99.90;;;;;;5122716;27;20069;-71
2022/04/04 08:17:54;;;;;;;41.30;18.52;;;5.70;99.90;;;;;;5139815;27;20056;-71
2022/04/04 08:20:21;;;;;;;41.22;18.50;;;5.80;99.90;;;;;;5139200;27;20091;-72
2022/04/04 08:22:47;;;;;;;30.10;16.35;;;5.80;99.90;;;;;;5139972;27;20089;-72
2022/04/04 08:25:15;;;;;;;32.50;17.77;;;5.90;99.90;;;;;;5138758;27;20051;-72
2022/04/04 08:27:43;;;;;;;29.40;18.33;;;5.90;99.90;;;;;;5139886;27;20059;-74
2022/04/04 08:30:10;;;;;;;30.02;16.13;;;5.90;99.90;;;;;;5122195;27;20121;-73
2022/04/04 08:32:37;;;;;;;29.33;16.40;;;6.00;99.90;;;;;;5139249;27;20087;-72
2022/04/04 08:35:07;;;;;;;34.22;18.00;;;5.90;99.90;;;;;;5139445;27;20085;-76
2022/04/04 08:37:37;;;;;;;33.28;17.40;;;6.00;99.90;;;;;;5139384;27;20074;-74
2022/04/04 08:40:05;;;;;;;33.63;17.30;;;6.00;99.90;;;;;;5138746;27;20047;-74
2022/04/04 08:42:31;;;;;;;29.55;16.67;;;6.00;99.90;;;;;;5138975;27;20051;-74
2022/04/04 08:44:58;;;;;;;24.60;14.48;;;6.10;99.90;;;;;;5139225;27;20043;-74
2022/04/04 08:47:25;;;;;;;28.20;15.48;;;6.10;99.90;;;;;;5139175;27;20103;-75
2022/04/04 08:49:52;;;;;;;27.73;15.57;;;6.10;99.90;;;;;;5138725;27;20042;-71
2022/04/04 08:52:19;;;;;;;19.33;10.70;;;6.20;99.90;;;;;;5138753;27;20039;-74
2022/04/04 08:54:45;;;;;;;19.55;11.18;;;6.20;99.90;;;;;;5139289;27;20051;-75
2022/04/04 08:57:11;;;;;;;18.05;10.98;;;6.20;99.90;;;;;;5121995;27;20058;-74
2022/04/04 08:59:36;;;;;;;17.35;10.27;;;6.30;99.90;;;;;;5139024;27;20394;-74
2022/04/04 09:02:02;;;;;;;16.25;9.18;;;6.30;99.90;;;;;;5139514;27;20042;-74
2022/04/04 09:04:29;;;;;;;20.48;9.23;;;6.30;99.90;;;;;;5121842;27;20062;-71
2022/04/04 09:07:03;;;;;;;14.05;7.30;;;6.20;99.90;;;;;;5139126;27;20132;-81
2022/04/04 09:09:43;;;;;;;13.73;8.15;;;6.20;99.90;;;;;;5138836;27;20042;-73
2022/04/04 09:12:11;;;;;;;12.68;7.38;;;6.30;99.90;;;;;;5139077;27;20043;-73
2022/04/04 09:14:46;;;;;;;15.20;7.68;;;6.30;99.90;;;;;;5138734;27;20054;-74
2022/04/04 09:17:14;;;;;;;15.73;6.32;;;6.40;99.90;;;;;;5139121;27;20371;-74
2022/04/04 09:19:40;;;;;;;11.50;7.03;;;6.50;99.90;;;;;;5138665;27;20042;-74
2022/04/04 09:22:13;;;;;;;16.98;7.60;;;6.50;99.90;;;;;;5138086;27;20054;-74
2022/04/04 09:24:43;;;;;;;9.93;5.25;;;6.50;99.90;;;;;;5138405;27;20047;-86
2022/04/04 09:27:15;;;;;;;15.88;6.47;;;6.50;99.90;;;;;;5121469;27;20136;-75
2022/04/04 09:29:42;;;;;;;13.45;6.85;;;6.50;99.90;;;;;;5121377;27;20046;-75
2022/04/04 09:32:11;;;;;;;15.55;7.47;;;6.50;99.90;;;;;;5137818;27;20043;-75
2022/04/04 09:35:04;;;;;;;16.42;7.80;;;6.50;99.90;;;;;;5121150;27;20039;-74
2022/04/04 09:37:32;;;;;;;13.88;7.43;;;6.50;99.90;;;;;;5138482;27;20047;-74
2022/04/04 09:40:25;;;;;;;15.85;7.70;;;6.50;99.90;;;;;;5138824;27;20420;-74
2022/04/04 09:42:53;;;;;;;20.60;8.00;;;6.60;99.90;;;;;;5127706;27;20058;-74
2022/04/04 09:45:24;;;;;;;15.90;8.02;;;6.60;99.90;;;;;;5138118;27;20051;-74
2022/04/04 09:48:06;;;;;;;16.27;7.90;;;6.60;99.90;;;;;;5138066;27;20130;-74
2022/04/04 09:50:36;;;;;;;15.13;8.57;;;6.60;99.90;;;;;;5137600;27;20058;-75
2022/04/04 09:53:05;;;;;;;14.18;8.85;;;6.70;99.90;;;;;;5155513;27;20137;-75
2022/04/04 09:56:00;;;;;;;17.88;9.45;;;6.70;99.90;;;;;;5137900;27;20054;-75
2022/04/04 09:58:38;;;;;;;16.80;9.15;;;6.70;99.90;;;;;;5134091;27;20501;-75
2022/04/04 10:01:04;;;;;;;14.98;8.07;;;6.80;99.90;;;;;;5138658;27;20086;-75
2022/04/04 10:03:31;;;;;;;14.05;8.05;;;6.60;99.90;;;;;;5086845;27;20047;-75
2022/04/04 10:06:09;;;;;;;18.52;9.85;;;6.70;99.90;;;;;;5137743;27;20082;-75
2022/04/04 10:08:37;;;;;;;19.67;9.18;;;6.70;99.90;;;;;;5137709;27;20082;-75
2022/04/04 10:11:05;;;;;;;17.98;8.70;;;6.80;99.90;;;;;;5120367;27;20493;-75
2022/04/04 10:13:31;;;;;;;21.50;9.35;;;6.90;99.90;;;;;;5137257;27;20047;-75
2022/04/04 10:15:57;;;;;;;20.58;9.18;;;6.90;99.90;;;;;;5120502;27;20043;-75
2022/04/04 10:18:23;;;;;;;17.60;10.07;;;6.80;99.90;;;;;;5120441;27;20086;-74
2022/04/04 10:20:53;;;;;;;18.92;9.43;;;6.80;99.90;;;;;;5137035;27;20505;-75
2022/04/04 10:23:20;;;;;;;21.90;9.30;;;6.90;99.90;;;;;;5137247;27;20398;-75
2022/04/04 10:25:50;;;;;;;13.98;8.65;;;6.90;99.90;;;;;;5138237;27;20050;-74
2022/04/04 10:28:37;;;;;;;15.48;8.20;;;6.80;99.90;;;;;;5138318;27;20050;-81
2022/04/04 10:31:20;;;;;;;18.23;9.65;;;6.90;99.90;;;;;;5138204;27;20053;-75
2022/04/04 10:33:49;;;;;;;17.77;8.10;;;6.90;99.90;;;;;;5137023;27;20137;-75
2022/04/04 10:36:24;;;;;;;16.85;8.73;;;6.90;99.90;;;;;;5136983;27;20038;-74
2022/04/04 10:38:51;;;;;;;21.55;9.23;;;7.00;99.90;;;;;;5137292;27;20038;-74
2022/04/04 10:41:25;;;;;;;18.30;8.30;;;7.10;99.90;;;;;;5137355;27;20053;-79
2022/04/04 10:43:52;;;;;;;12.35;8.30;;;7.00;99.90;;;;;;5136944;27;20081;-74
2022/04/04 10:46:20;;;;;;;15.30;9.23;;;7.00;99.90;;;;;;5137225;27;20146;-75
2022/04/04 10:48:51;;;;;;;14.75;7.95;;;7.10;99.90;;;;;;5137087;27;20043;-75
2022/04/04 10:51:17;;;;;;;17.70;8.50;;;7.10;99.90;;;;;;5136597;27;20446;-75
2022/04/04 10:53:53;;;;;;;16.00;8.45;;;7.10;99.90;;;;;;5119645;27;20085;-74
2022/04/04 10:56:24;;;;;;;18.10;8.45;;;7.00;99.90;;;;;;5137036;27;20482;-74
2022/04/04 10:58:53;;;;;;;18.30;8.88;;;7.10;99.90;;;;;;5137231;27;20098;-74
2022/04/04 11:01:21;;;;;;;18.40;8.70;;;7.20;99.90;;;;;;5136983;27;20427;-74
2022/04/04 11:03:52;;;;;;;15.13;6.70;;;7.20;99.90;;;;;;5138688;27;20060;-73
2022/04/04 11:09:22;;;;;;;15.18;8.38;;;7.30;99.90;;;;;;5141419;27;20428;-74
2022/04/04 11:12:12;;;;;;;15.95;8.20;;;7.40;99.90;;;;;;5140937;27;20187;-74
2022/04/04 11:14:42;;;;;;;13.57;8.27;;;7.50;99.90;;;;;;5141289;27;20043;-74
2022/04/04 11:17:17;;;;;;;18.38;7.50;;;7.50;99.90;;;;;;5123802;27;20047;-74
2022/04/04 11:19:51;;;;;;;10.98;7.75;;;7.40;99.90;;;;;;5123666;27;20047;-74
2022/04/04 11:22:21;;;;;;;12.20;6.53;;;7.40;99.90;;;;;;5140474;27;20061;-74
2022/04/04 11:24:52;;;;;;;14.65;7.53;;;7.40;99.90;;;;;;5140547;27;20099;-74
2022/04/04 11:27:21;;;;;;;11.98;6.88;;;7.50;99.90;;;;;;5141181;27;20061;-74
2022/04/04 11:29:47;;;;;;;11.48;6.32;;;7.50;99.90;;;;;;5140709;27;20047;-74
2022/04/04 11:32:16;;;;;;;8.18;5.70;;;7.40;99.90;;;;;;5140547;27;20135;-75
2022/04/04 11:34:43;;;;;;;7.57;4.97;;;7.50;99.90;;;;;;5140517;27;20054;-74
2022/04/04 11:37:18;;;;;;;7.15;5.40;;;7.50;99.90;;;;;;5140750;27;20084;-74
2022/04/04 11:39:46;;;;;;;11.02;6.38;;;7.60;99.90;;;;;;5141021;27;20054;-75
2022/04/04 11:42:12;;;;;;;10.43;5.78;;;7.60;99.90;;;;;;5140626;27;20058;-74
2022/04/04 11:44:46;;;;;;;12.55;5.90;;;7.60;99.90;;;;;;5140206;27;20501;-75
2022/04/04 11:47:11;;;;;;;7.72;4.93;;;7.70;99.90;;;;;;5140568;27;20100;-74
2022/04/04 11:49:39;;;;;;;9.15;4.97;;;7.70;99.90;;;;;;5140401;27;20550;-74
2022/04/04 11:52:07;;;;;;;6.95;4.93;;;7.70;99.90;;;;;;5122694;27;20038;-74
2022/04/04 11:54:43;;;;;;;8.13;4.50;;;7.80;99.90;;;;;;5123347;27;20473;-74
2022/04/04 11:57:10;;;;;;;7.50;3.92;;;7.80;99.90;;;;;;5140045;27;20047;-74
2022/04/04 11:59:40;;;;;;;9.75;4.53;;;7.90;99.90;;;;;;5140168;27;20046;-74
2022/04/04 12:02:08;;;;;;;6.97;3.80;;;7.90;99.90;;;;;;5140224;27;20107;-74
2022/04/04 12:04:39;;;;;;;7.60;4.00;;;7.90;99.90;;;;;;5140256;27;20038;-74
2022/04/04 12:07:06;;;;;;;4.93;3.88;;;7.90;99.90;;;;;;5140014;27;20070;-74
2022/04/04 12:09:34;;;;;;;6.50;3.40;;;7.80;99.90;;;;;;5139767;27;20103;-75
2022/04/04 12:12:12;;;;;;;4.13;3.47;;;7.90;99.90;;;;;;5139957;27;20049;-74
2022/04/04 12:14:43;;;;;;;6.45;3.33;;;7.90;99.90;;;;;;5139656;27;20130;-75
2022/04/04 12:17:16;;;;;;;4.75;2.78;;;7.90;99.90;;;;;;5140143;27;20095;-74
2022/04/04 12:19:43;;;;;;;5.38;3.03;;;7.90;99.90;;;;;;5139984;27;20055;-74
2022/04/04 12:24:57;;;;;;;5.43;2.80;;;8.00;99.90;;;;;;5139055;27;20051;-74
2022/04/04 12:27:24;;;;;;;5.40;2.53;;;8.10;99.90;;;;;;5157872;27;20053;-74
2022/04/04 12:29:57;;;;;;;4.03;2.38;;;8.10;99.90;;;;;;5139291;27;20117;-75
2022/04/04 12:32:22;;;;;;;5.45;2.80;;;8.20;99.90;;;;;;5139546;27;20051;-75
2022/04/04 12:35:00;;;;;;;4.20;2.97;;;8.20;99.90;;;;;;5139792;27;20053;-75
2022/04/04 12:37:39;;;;;;;4.07;2.72;;;8.30;99.90;;;;;;5139266;27;20043;-75
2022/04/04 12:40:22;;;;;;;5.57;2.72;;;8.20;99.90;;;;;;5139364;27;20473;-76
2022/04/04 12:42:50;;;;;;;3.78;2.00;;;8.30;99.90;;;;;;5139513;27;20046;-75
2022/04/04 12:45:18;;;;;;;4.38;2.60;;;8.30;99.90;;;;;;5139490;27;20055;-75
2022/04/04 12:48:11;;;;;;;2.55;1.90;;;8.40;99.90;;;;;;5139024;27;20061;-75
2022/04/04 12:50:47;;;;;;;3.95;2.20;;;8.40;99.90;;;;;;5138645;27;20129;-76
2022/04/04 12:53:14;;;;;;;4.20;2.40;;;8.50;99.90;;;;;;5157408;27;20046;-76
2022/04/04 12:55:45;;;;;;;3.80;2.30;;;8.40;99.90;;;;;;5138867;27;20050;-76